Atkins, IA

6:14 AM CDT on September 01, 2015 (GMT -0500)
Ridgeview Estates | | Change Station
CLOSE
Current Station
Personal Weather Station
Location: Atkins, IA
Elevation: 860 ft
Nearby Weather Stations

Elev 860 ft 41.99 °N, 91.85 °W | Updated 15 seconds ago

Clear
Clear
68.4 °F
Feels Like 68.4 °F
N
1.8
Wind Variable Wind from SSE
Gusts 4.3 mph

Today
High -- | Low -- °F
--% Chance of Precip.
Yesterday
High -- | Low -- °F
Precip. -- in
6:32 AM 7:41 PM
Waning Gibbous, 89% visible
Pressure 29.98 in
Visibility 7.0 miles
Clouds Clear
Dew Point 67 °F
Humidity 97%
Rainfall 0.00 in
Snow Depth Not available.
UV 0 out of 12
Pollen 10.50 out of 12
Air Quality Not available.
Flu Activity Not available.
METAR KCID 011052Z 17005KT 7SM CLR 19/19 A2999 RMK AO2 SLP150 T01940194
Pressure 29.98 in
Visibility 7.0 miles
Clouds Clear
Dew Point 67 °F
Humidity 97%
Rainfall 0.00 in
Snow Depth Not available.
UV 0 out of 12
Pollen 10.50 out of 12
Air Quality Not available.
Flu Activity Not available.
METAR KCID 011052Z 17005KT 7SM CLR 19/19 A2999 RMK AO2 SLP150 T01940194

10-Day Weather Forecast

×

Almanac

Astronomy

Sep. 01, 2015 Rise Set
Actual Time
Civil Twilight
Nautical Twilight
Astronomical Twilight
Moon
Length of Visible Light
Length of Day
Tomorrow will be .
, % of the Moon is Illuminated

Today's Extremes

State Highs State Lows

Community

WunderPhotos

Upload Photos

1,851,501 photos uploaded!

WunderBlogs® & News

Nearby

Air Quality

  Air Quality AQ Index Pollutant
Not available.

Snow Depth

Station Depth Elevation

Earthquake Activity

City Distance Mag. Time & Date
Minimum magnitude displayed is 2.5.

Coastal Water Temperatures

Place Temperature

Stations

Nearby Weather Stations

Station Location Temp. Windchill Dew Point Humidity Wind Precip. Elev Updated Type